Decoded Metar for KOLU (COLUMBUS MUNI in NE, USA) (IATA:OLU) | Meteo·Mobile Aviation Weather
aviador You're here:

KOLU Decoded Metar

COLUMBUS MUNI in NE, USA
Report Time2018-09-22 17:56:00
UTC Time2018-09-22 18:43:02
Flight Rules vfr VFR
Wind170° at 09 kt
W.Decomp.*RWY 14: 8.3 kt HW 3.4 kt RCW
RWY 20: 7.1 kt HW 5.5 kt LCW
W.Rank170° ranks 1
Current wind is below 170° avg. (10.0)
Visibility9999 m
Phenomena:N/A
Clouds:N/A
Expected CloudBase > 4,000 ft AGL from Temp-Dew spread
CeilingNone
Temp19°C (ISA +7)
Dew Point09°C (52% RH)
AAT15.5°C
QNH1023 hPa
Density Alt2,070 ft
Elevation1,444 ft
Report Wrong Elevation
Raw Report
KOLU 221756Z AUTO 17009KT 10SM CLR 19/09 A3021 RMK AO2 SLP233
T01940094 10194 20044 58023=

Extra information for KOLU:More info

Metar Taf Metar & Taf Last 4 Metars F.Rules Stats Wind Profile Meteogram Temp Stats Airport Information Weather charts Add Link Nearby VenuesMetar ALERT Operation Metar Decoded Social comments

AIRNAV info for KOLU